sensor_id;sensor_type;location;lat;lon;timestamp;P1;durP1;ratioP1;P2;durP2;ratioP2
61635;SDS011;59438;45.014;39.006;2022-11-20T00:01:08;20.67;;;11.73;;
61635;SDS011;59438;45.014;39.006;2022-11-20T00:03:36;19.23;;;11.30;;
61635;SDS011;59438;45.014;39.006;2022-11-20T00:06:04;19.75;;;11.40;;
61635;SDS011;59438;45.014;39.006;2022-11-20T00:08:32;18.35;;;11.18;;
61635;SDS011;59438;45.014;39.006;2022-11-20T00:11:02;21.30;;;11.60;;
61635;SDS011;59438;45.014;39.006;2022-11-20T00:13:29;22.33;;;11.65;;
61635;SDS011;59438;45.014;39.006;2022-11-20T00:15:58;21.45;;;11.05;;
61635;SDS011;59438;45.014;39.006;2022-11-20T00:18:26;19.85;;;10.68;;
61635;SDS011;59438;45.014;39.006;2022-11-20T00:20:53;18.83;;;11.18;;
61635;SDS011;59438;45.014;39.006;2022-11-20T00:23:25;19.55;;;10.60;;
61635;SDS011;59438;45.014;39.006;2022-11-20T00:25:51;15.80;;;10.75;;
61635;SDS011;59438;45.014;39.006;2022-11-20T00:28:18;22.50;;;10.50;;
61635;SDS011;59438;45.014;39.006;2022-11-20T00:30:44;16.45;;;9.90;;
61635;SDS011;59438;45.014;39.006;2022-11-20T00:33:11;17.30;;;10.40;;
61635;SDS011;59438;45.014;39.006;2022-11-20T00:35:38;18.98;;;10.48;;
61635;SDS011;59438;45.014;39.006;2022-11-20T00:38:05;21.65;;;11.18;;
61635;SDS011;59438;45.014;39.006;2022-11-20T00:40:31;22.10;;;10.60;;
61635;SDS011;59438;45.014;39.006;2022-11-20T00:42:58;16.70;;;9.32;;
61635;SDS011;59438;45.014;39.006;2022-11-20T00:45:24;18.85;;;10.10;;
61635;SDS011;59438;45.014;39.006;2022-11-20T00:47:51;16.70;;;10.10;;
61635;SDS011;59438;45.014;39.006;2022-11-20T00:50:18;18.25;;;9.82;;
61635;SDS011;59438;45.014;39.006;2022-11-20T00:52:45;17.55;;;9.98;;
61635;SDS011;59438;45.014;39.006;2022-11-20T00:55:12;16.70;;;9.70;;
61635;SDS011;59438;45.014;39.006;2022-11-20T00:57:38;13.93;;;9.27;;
61635;SDS011;59438;45.014;39.006;2022-11-20T01:00:05;16.48;;;9.93;;
61635;SDS011;59438;45.014;39.006;2022-11-20T01:02:32;20.17;;;10.32;;
61635;SDS011;59438;45.014;39.006;2022-11-20T01:04:59;16.50;;;9.85;;
61635;SDS011;59438;45.014;39.006;2022-11-20T01:07:25;16.95;;;9.73;;
61635;SDS011;59438;45.014;39.006;2022-11-20T01:09:53;19.55;;;10.27;;
61635;SDS011;59438;45.014;39.006;2022-11-20T01:12:19;16.25;;;9.82;;
61635;SDS011;59438;45.014;39.006;2022-11-20T01:14:46;18.58;;;10.68;;
61635;SDS011;59438;45.014;39.006;2022-11-20T01:17:13;17.42;;;9.82;;
61635;SDS011;59438;45.014;39.006;2022-11-20T01:19:39;16.70;;;9.95;;
61635;SDS011;59438;45.014;39.006;2022-11-20T01:22:06;16.15;;;9.43;;
61635;SDS011;59438;45.014;39.006;2022-11-20T01:24:32;18.92;;;10.10;;
61635;SDS011;59438;45.014;39.006;2022-11-20T01:27:00;18.13;;;9.65;;
61635;SDS011;59438;45.014;39.006;2022-11-20T01:29:27;16.90;;;9.98;;
61635;SDS011;59438;45.014;39.006;2022-11-20T01:31:53;13.98;;;9.35;;
61635;SDS011;59438;45.014;39.006;2022-11-20T01:34:20;16.88;;;9.63;;
61635;SDS011;59438;45.014;39.006;2022-11-20T01:36:47;17.33;;;10.15;;
61635;SDS011;59438;45.014;39.006;2022-11-20T01:39:16;19.13;;;10.48;;
61635;SDS011;59438;45.014;39.006;2022-11-20T01:41:43;18.65;;;9.27;;
61635;SDS011;59438;45.014;39.006;2022-11-20T01:44:13;15.77;;;9.32;;
61635;SDS011;59438;45.014;39.006;2022-11-20T01:46:42;14.68;;;8.90;;
61635;SDS011;59438;45.014;39.006;2022-11-20T01:49:21;16.20;;;9.68;;
61635;SDS011;59438;45.014;39.006;2022-11-20T01:51:51;16.50;;;8.93;;
61635;SDS011;59438;45.014;39.006;2022-11-20T01:54:23;18.58;;;9.05;;
61635;SDS011;59438;45.014;39.006;2022-11-20T01:56:56;16.58;;;9.10;;
61635;SDS011;59438;45.014;39.006;2022-11-20T01:59:26;16.33;;;9.52;;
61635;SDS011;59438;45.014;39.006;2022-11-20T02:01:55;18.20;;;8.95;;
61635;SDS011;59438;45.014;39.006;2022-11-20T02:04:22;15.20;;;8.95;;
61635;SDS011;59438;45.014;39.006;2022-11-20T02:06:51;17.88;;;9.20;;
61635;SDS011;59438;45.014;39.006;2022-11-20T02:09:24;17.25;;;9.10;;
61635;SDS011;59438;45.014;39.006;2022-11-20T02:11:51;15.35;;;8.32;;
61635;SDS011;59438;45.014;39.006;2022-11-20T02:14:17;15.05;;;8.65;;
61635;SDS011;59438;45.014;39.006;2022-11-20T02:16:46;18.17;;;9.00;;
61635;SDS011;59438;45.014;39.006;2022-11-20T02:19:16;17.65;;;8.98;;
61635;SDS011;59438;45.014;39.006;2022-11-20T02:21:49;18.70;;;8.55;;
61635;SDS011;59438;45.014;39.006;2022-11-20T02:24:25;15.80;;;9.68;;
61635;SDS011;59438;45.014;39.006;2022-11-20T02:26:52;16.05;;;8.80;;
61635;SDS011;59438;45.014;39.006;2022-11-20T02:29:23;15.98;;;8.93;;
61635;SDS011;59438;45.014;39.006;2022-11-20T02:31:52;19.50;;;9.35;;
61635;SDS011;59438;45.014;39.006;2022-11-20T02:34:22;15.95;;;8.55;;
61635;SDS011;59438;45.014;39.006;2022-11-20T02:36:48;18.23;;;8.80;;
61635;SDS011;59438;45.014;39.006;2022-11-20T02:39:16;18.33;;;9.13;;
61635;SDS011;59438;45.014;39.006;2022-11-20T02:41:46;17.08;;;8.93;;
61635;SDS011;59438;45.014;39.006;2022-11-20T02:44:12;18.83;;;9.75;;
61635;SDS011;59438;45.014;39.006;2022-11-20T02:46:39;16.33;;;9.05;;
61635;SDS011;59438;45.014;39.006;2022-11-20T02:49:05;15.65;;;8.25;;
61635;SDS011;59438;45.014;39.006;2022-11-20T02:51:32;14.93;;;8.85;;
61635;SDS011;59438;45.014;39.006;2022-11-20T02:53:58;15.23;;;9.40;;
61635;SDS011;59438;45.014;39.006;2022-11-20T02:56:24;17.73;;;8.75;;
61635;SDS011;59438;45.014;39.006;2022-11-20T02:58:52;16.10;;;9.05;;
61635;SDS011;59438;45.014;39.006;2022-11-20T03:01:19;17.73;;;8.68;;
61635;SDS011;59438;45.014;39.006;2022-11-20T03:03:45;16.95;;;8.60;;
61635;SDS011;59438;45.014;39.006;2022-11-20T03:06:12;15.27;;;8.52;;
61635;SDS011;59438;45.014;39.006;2022-11-20T03:08:38;17.58;;;8.55;;
61635;SDS011;59438;45.014;39.006;2022-11-20T03:11:05;13.05;;;8.48;;
61635;SDS011;59438;45.014;39.006;2022-11-20T03:13:32;14.02;;;7.85;;
61635;SDS011;59438;45.014;39.006;2022-11-20T03:16:05;15.15;;;8.88;;
61635;SDS011;59438;45.014;39.006;2022-11-20T03:18:33;15.45;;;8.43;;
61635;SDS011;59438;45.014;39.006;2022-11-20T03:20:59;14.88;;;8.85;;
61635;SDS011;59438;45.014;39.006;2022-11-20T03:23:26;13.32;;;8.35;;
61635;SDS011;59438;45.014;39.006;2022-11-20T03:25:54;13.43;;;8.13;;
61635;SDS011;59438;45.014;39.006;2022-11-20T03:28:21;14.10;;;8.40;;
61635;SDS011;59438;45.014;39.006;2022-11-20T03:30:47;15.27;;;8.13;;
61635;SDS011;59438;45.014;39.006;2022-11-20T03:33:15;15.73;;;8.63;;
61635;SDS011;59438;45.014;39.006;2022-11-20T03:35:41;15.88;;;9.43;;
61635;SDS011;59438;45.014;39.006;2022-11-20T03:38:08;16.38;;;9.60;;
61635;SDS011;59438;45.014;39.006;2022-11-20T03:40:34;16.60;;;8.70;;
61635;SDS011;59438;45.014;39.006;2022-11-20T03:43:01;17.98;;;9.65;;
61635;SDS011;59438;45.014;39.006;2022-11-20T03:45:27;16.02;;;9.10;;
61635;SDS011;59438;45.014;39.006;2022-11-20T03:47:54;17.23;;;9.98;;
61635;SDS011;59438;45.014;39.006;2022-11-20T03:50:22;17.02;;;9.20;;
61635;SDS011;59438;45.014;39.006;2022-11-20T03:52:48;18.88;;;10.55;;
61635;SDS011;59438;45.014;39.006;2022-11-20T03:55:15;16.25;;;9.77;;
61635;SDS011;59438;45.014;39.006;2022-11-20T03:57:41;16.92;;;9.98;;
61635;SDS011;59438;45.014;39.006;2022-11-20T04:00:08;17.38;;;9.98;;
61635;SDS011;59438;45.014;39.006;2022-11-20T04:02:35;19.58;;;11.10;;
61635;SDS011;59438;45.014;39.006;2022-11-20T04:05:02;17.05;;;10.38;;
61635;SDS011;59438;45.014;39.006;2022-11-20T04:07:29;18.50;;;10.75;;
61635;SDS011;59438;45.014;39.006;2022-11-20T04:09:56;22.20;;;11.13;;
61635;SDS011;59438;45.014;39.006;2022-11-20T04:12:22;19.45;;;11.32;;
61635;SDS011;59438;45.014;39.006;2022-11-20T04:14:49;20.23;;;11.57;;
61635;SDS011;59438;45.014;39.006;2022-11-20T04:17:15;17.63;;;11.77;;
61635;SDS011;59438;45.014;39.006;2022-11-20T04:19:41;23.30;;;12.38;;
61635;SDS011;59438;45.014;39.006;2022-11-20T04:22:08;21.50;;;12.13;;
61635;SDS011;59438;45.014;39.006;2022-11-20T04:24:36;21.90;;;12.38;;
61635;SDS011;59438;45.014;39.006;2022-11-20T04:27:02;20.73;;;12.90;;
61635;SDS011;59438;45.014;39.006;2022-11-20T04:29:28;25.58;;;12.93;;
61635;SDS011;59438;45.014;39.006;2022-11-20T04:31:55;26.75;;;12.85;;
61635;SDS011;59438;45.014;39.006;2022-11-20T04:34:21;21.58;;;11.85;;
61635;SDS011;59438;45.014;39.006;2022-11-20T04:36:48;23.30;;;12.32;;
61635;SDS011;59438;45.014;39.006;2022-11-20T04:39:14;26.13;;;13.23;;
61635;SDS011;59438;45.014;39.006;2022-11-20T04:41:42;20.85;;;12.32;;
61635;SDS011;59438;45.014;39.006;2022-11-20T04:44:09;21.48;;;13.15;;
61635;SDS011;59438;45.014;39.006;2022-11-20T04:46:37;24.00;;;15.00;;
61635;SDS011;59438;45.014;39.006;2022-11-20T04:49:04;28.75;;;16.50;;
61635;SDS011;59438;45.014;39.006;2022-11-20T04:51:31;24.88;;;15.27;;
61635;SDS011;59438;45.014;39.006;2022-11-20T04:53:58;24.85;;;14.48;;
61635;SDS011;59438;45.014;39.006;2022-11-20T04:56:25;23.48;;;14.18;;
61635;SDS011;59438;45.014;39.006;2022-11-20T04:58:53;27.30;;;14.50;;
61635;SDS011;59438;45.014;39.006;2022-11-20T05:01:20;22.80;;;14.60;;
61635;SDS011;59438;45.014;39.006;2022-11-20T05:03:47;29.85;;;15.40;;
61635;SDS011;59438;45.014;39.006;2022-11-20T05:06:14;24.33;;;13.60;;
61635;SDS011;59438;45.014;39.006;2022-11-20T05:08:42;25.88;;;13.13;;
61635;SDS011;59438;45.014;39.006;2022-11-20T05:11:12;23.33;;;12.82;;
61635;SDS011;59438;45.014;39.006;2022-11-20T05:13:40;25.02;;;12.30;;
61635;SDS011;59438;45.014;39.006;2022-11-20T05:16:08;22.08;;;12.70;;
61635;SDS011;59438;45.014;39.006;2022-11-20T05:18:36;23.17;;;12.23;;
61635;SDS011;59438;45.014;39.006;2022-11-20T05:21:03;23.05;;;12.73;;
61635;SDS011;59438;45.014;39.006;2022-11-20T05:23:31;20.60;;;12.35;;
61635;SDS011;59438;45.014;39.006;2022-11-20T05:25:58;21.45;;;10.95;;
61635;SDS011;59438;45.014;39.006;2022-11-20T05:28:26;21.00;;;12.48;;
61635;SDS011;59438;45.014;39.006;2022-11-20T05:30:53;22.17;;;12.13;;
61635;SDS011;59438;45.014;39.006;2022-11-20T05:33:22;23.17;;;12.57;;
61635;SDS011;59438;45.014;39.006;2022-11-20T05:35:48;22.77;;;12.85;;
61635;SDS011;59438;45.014;39.006;2022-11-20T05:38:15;19.98;;;11.68;;
61635;SDS011;59438;45.014;39.006;2022-11-20T05:40:41;20.98;;;12.15;;
61635;SDS011;59438;45.014;39.006;2022-11-20T05:43:07;21.95;;;12.32;;
61635;SDS011;59438;45.014;39.006;2022-11-20T05:45:34;22.55;;;12.30;;
61635;SDS011;59438;45.014;39.006;2022-11-20T05:48:00;23.80;;;12.70;;
61635;SDS011;59438;45.014;39.006;2022-11-20T05:50:28;19.52;;;11.70;;
61635;SDS011;59438;45.014;39.006;2022-11-20T05:52:55;24.45;;;12.25;;
61635;SDS011;59438;45.014;39.006;2022-11-20T05:55:24;22.60;;;11.48;;
61635;SDS011;59438;45.014;39.006;2022-11-20T05:57:52;19.70;;;11.48;;
61635;SDS011;59438;45.014;39.006;2022-11-20T06:00:19;22.42;;;11.27;;
61635;SDS011;59438;45.014;39.006;2022-11-20T06:02:46;20.30;;;11.10;;
61635;SDS011;59438;45.014;39.006;2022-11-20T06:05:12;17.33;;;10.55;;
61635;SDS011;59438;45.014;39.006;2022-11-20T06:07:40;18.33;;;10.77;;
61635;SDS011;59438;45.014;39.006;2022-11-20T06:10:07;20.85;;;11.55;;
61635;SDS011;59438;45.014;39.006;2022-11-20T06:12:34;23.95;;;10.85;;
61635;SDS011;59438;45.014;39.006;2022-11-20T06:15:00;20.02;;;11.18;;
61635;SDS011;59438;45.014;39.006;2022-11-20T06:17:27;22.92;;;11.25;;
61635;SDS011;59438;45.014;39.006;2022-11-20T06:19:54;17.80;;;10.38;;
61635;SDS011;59438;45.014;39.006;2022-11-20T06:22:20;23.23;;;11.02;;
61635;SDS011;59438;45.014;39.006;2022-11-20T06:24:48;19.42;;;10.23;;
61635;SDS011;59438;45.014;39.006;2022-11-20T06:27:15;29.40;;;10.75;;
61635;SDS011;59438;45.014;39.006;2022-11-20T06:29:42;16.83;;;10.85;;
61635;SDS011;59438;45.014;39.006;2022-11-20T06:32:08;18.90;;;10.80;;
61635;SDS011;59438;45.014;39.006;2022-11-20T06:34:34;23.48;;;10.50;;
61635;SDS011;59438;45.014;39.006;2022-11-20T06:37:01;21.20;;;11.13;;
61635;SDS011;59438;45.014;39.006;2022-11-20T06:39:27;17.27;;;10.15;;
61635;SDS011;59438;45.014;39.006;2022-11-20T06:41:55;19.02;;;11.10;;
61635;SDS011;59438;45.014;39.006;2022-11-20T06:44:21;16.65;;;10.07;;
61635;SDS011;59438;45.014;39.006;2022-11-20T06:46:48;17.73;;;9.95;;
61635;SDS011;59438;45.014;39.006;2022-11-20T06:49:14;17.33;;;9.80;;
61635;SDS011;59438;45.014;39.006;2022-11-20T06:51:41;15.63;;;9.73;;
61635;SDS011;59438;45.014;39.006;2022-11-20T06:54:07;16.30;;;9.05;;
61635;SDS011;59438;45.014;39.006;2022-11-20T06:56:34;15.48;;;9.45;;
61635;SDS011;59438;45.014;39.006;2022-11-20T06:59:04;17.95;;;9.48;;
61635;SDS011;59438;45.014;39.006;2022-11-20T07:01:31;16.88;;;10.55;;
61635;SDS011;59438;45.014;39.006;2022-11-20T07:03:57;17.60;;;9.75;;
61635;SDS011;59438;45.014;39.006;2022-11-20T07:06:24;17.10;;;10.00;;
61635;SDS011;59438;45.014;39.006;2022-11-20T07:08:50;17.13;;;9.80;;
61635;SDS011;59438;45.014;39.006;2022-11-20T07:11:17;20.38;;;10.13;;
61635;SDS011;59438;45.014;39.006;2022-11-20T07:13:43;17.30;;;9.93;;
61635;SDS011;59438;45.014;39.006;2022-11-20T07:16:11;18.45;;;10.20;;
61635;SDS011;59438;45.014;39.006;2022-11-20T07:18:37;15.95;;;9.85;;
61635;SDS011;59438;45.014;39.006;2022-11-20T07:21:04;20.65;;;10.05;;
61635;SDS011;59438;45.014;39.006;2022-11-20T07:23:32;17.25;;;9.57;;
61635;SDS011;59438;45.014;39.006;2022-11-20T07:26:02;18.38;;;9.48;;
61635;SDS011;59438;45.014;39.006;2022-11-20T07:28:29;14.77;;;8.98;;
61635;SDS011;59438;45.014;39.006;2022-11-20T07:30:55;15.48;;;9.55;;
61635;SDS011;59438;45.014;39.006;2022-11-20T07:33:23;16.33;;;8.80;;
61635;SDS011;59438;45.014;39.006;2022-11-20T07:35:49;19.05;;;9.88;;
61635;SDS011;59438;45.014;39.006;2022-11-20T07:38:16;21.48;;;9.55;;
61635;SDS011;59438;45.014;39.006;2022-11-20T07:40:42;18.60;;;9.25;;
61635;SDS011;59438;45.014;39.006;2022-11-20T07:43:09;15.05;;;8.32;;
61635;SDS011;59438;45.014;39.006;2022-11-20T07:45:35;19.58;;;8.88;;
61635;SDS011;59438;45.014;39.006;2022-11-20T07:48:02;18.85;;;8.82;;
61635;SDS011;59438;45.014;39.006;2022-11-20T07:50:30;16.95;;;8.68;;
61635;SDS011;59438;45.014;39.006;2022-11-20T07:53:00;14.95;;;8.65;;
61635;SDS011;59438;45.014;39.006;2022-11-20T07:55:28;14.82;;;8.52;;
61635;SDS011;59438;45.014;39.006;2022-11-20T07:57:54;17.33;;;8.45;;
61635;SDS011;59438;45.014;39.006;2022-11-20T08:00:21;14.35;;;8.43;;
61635;SDS011;59438;45.014;39.006;2022-11-20T08:02:48;17.83;;;9.15;;
61635;SDS011;59438;45.014;39.006;2022-11-20T08:05:14;15.23;;;8.13;;
61635;SDS011;59438;45.014;39.006;2022-11-20T08:07:43;14.35;;;8.57;;
61635;SDS011;59438;45.014;39.006;2022-11-20T08:10:10;15.70;;;8.82;;
61635;SDS011;59438;45.014;39.006;2022-11-20T08:12:43;13.77;;;8.23;;
61635;SDS011;59438;45.014;39.006;2022-11-20T08:15:10;16.27;;;8.80;;
61635;SDS011;59438;45.014;39.006;2022-11-20T08:17:36;17.65;;;8.95;;
61635;SDS011;59438;45.014;39.006;2022-11-20T08:20:03;13.73;;;8.38;;
61635;SDS011;59438;45.014;39.006;2022-11-20T08:22:30;17.85;;;8.70;;
61635;SDS011;59438;45.014;39.006;2022-11-20T08:24:57;16.20;;;8.60;;
61635;SDS011;59438;45.014;39.006;2022-11-20T08:27:24;19.38;;;9.00;;
61635;SDS011;59438;45.014;39.006;2022-11-20T08:29:50;12.88;;;8.27;;
61635;SDS011;59438;45.014;39.006;2022-11-20T08:32:16;17.08;;;8.65;;
61635;SDS011;59438;45.014;39.006;2022-11-20T08:34:43;17.23;;;9.07;;
61635;SDS011;59438;45.014;39.006;2022-11-20T08:37:09;16.00;;;8.82;;
61635;SDS011;59438;45.014;39.006;2022-11-20T08:39:36;17.05;;;9.18;;
61635;SDS011;59438;45.014;39.006;2022-11-20T08:42:06;17.45;;;9.10;;
61635;SDS011;59438;45.014;39.006;2022-11-20T08:44:32;15.63;;;8.83;;
61635;SDS011;59438;45.014;39.006;2022-11-20T08:46:59;17.58;;;9.40;;
61635;SDS011;59438;45.014;39.006;2022-11-20T08:49:26;16.55;;;9.13;;
61635;SDS011;59438;45.014;39.006;2022-11-20T08:51:52;17.33;;;9.02;;
61635;SDS011;59438;45.014;39.006;2022-11-20T08:54:19;19.08;;;9.15;;
61635;SDS011;59438;45.014;39.006;2022-11-20T08:56:45;23.60;;;9.90;;
61635;SDS011;59438;45.014;39.006;2022-11-20T08:59:13;20.52;;;9.43;;
61635;SDS011;59438;45.014;39.006;2022-11-20T09:01:39;20.23;;;9.65;;
61635;SDS011;59438;45.014;39.006;2022-11-20T09:04:06;13.98;;;8.90;;
61635;SDS011;59438;45.014;39.006;2022-11-20T09:06:32;20.13;;;9.40;;
61635;SDS011;59438;45.014;39.006;2022-11-20T09:08:58;18.80;;;9.15;;
61635;SDS011;59438;45.014;39.006;2022-11-20T09:11:25;15.13;;;8.98;;
61635;SDS011;59438;45.014;39.006;2022-11-20T09:13:51;21.73;;;9.43;;
61635;SDS011;59438;45.014;39.006;2022-11-20T09:16:19;18.73;;;9.00;;
61635;SDS011;59438;45.014;39.006;2022-11-20T09:18:45;18.92;;;9.68;;
61635;SDS011;59438;45.014;39.006;2022-11-20T09:21:12;17.40;;;9.13;;
61635;SDS011;59438;45.014;39.006;2022-11-20T09:23:39;20.92;;;9.45;;
61635;SDS011;59438;45.014;39.006;2022-11-20T09:26:07;16.45;;;9.40;;
61635;SDS011;59438;45.014;39.006;2022-11-20T09:28:36;24.02;;;10.02;;
61635;SDS011;59438;45.014;39.006;2022-11-20T09:31:04;17.13;;;9.20;;
61635;SDS011;59438;45.014;39.006;2022-11-20T09:33:32;19.95;;;9.25;;
61635;SDS011;59438;45.014;39.006;2022-11-20T09:35:59;15.40;;;9.20;;
61635;SDS011;59438;45.014;39.006;2022-11-20T09:38:25;17.25;;;9.50;;
61635;SDS011;59438;45.014;39.006;2022-11-20T09:40:53;16.73;;;9.13;;
61635;SDS011;59438;45.014;39.006;2022-11-20T09:43:25;16.30;;;9.48;;
61635;SDS011;59438;45.014;39.006;2022-11-20T09:46:04;18.17;;;9.07;;
61635;SDS011;59438;45.014;39.006;2022-11-20T09:48:41;18.27;;;8.90;;
61635;SDS011;59438;45.014;39.006;2022-11-20T09:51:16;15.65;;;8.32;;
61635;SDS011;59438;45.014;39.006;2022-11-20T09:53:56;15.63;;;8.52;;
61635;SDS011;59438;45.014;39.006;2022-11-20T09:56:33;13.65;;;7.45;;
61635;SDS011;59438;45.014;39.006;2022-11-20T09:59:03;18.23;;;8.95;;
61635;SDS011;59438;45.014;39.006;2022-11-20T10:01:32;17.33;;;8.20;;
61635;SDS011;59438;45.014;39.006;2022-11-20T10:04:04;17.73;;;7.33;;
61635;SDS011;59438;45.014;39.006;2022-11-20T10:06:37;20.48;;;7.88;;
61635;SDS011;59438;45.014;39.006;2022-11-20T10:09:14;12.38;;;7.30;;
61635;SDS011;59438;45.014;39.006;2022-11-20T10:11:52;16.58;;;7.55;;
61635;SDS011;59438;45.014;39.006;2022-11-20T10:14:33;18.13;;;8.23;;
61635;SDS011;59438;45.014;39.006;2022-11-20T10:17:10;13.70;;;7.10;;
61635;SDS011;59438;45.014;39.006;2022-11-20T10:19:47;14.35;;;7.13;;
61635;SDS011;59438;45.014;39.006;2022-11-20T10:22:41;13.65;;;7.10;;
61635;SDS011;59438;45.014;39.006;2022-11-20T10:25:18;12.95;;;6.82;;
61635;SDS011;59438;45.014;39.006;2022-11-20T10:27:49;13.07;;;7.20;;
61635;SDS011;59438;45.014;39.006;2022-11-20T10:30:30;11.75;;;7.60;;
61635;SDS011;59438;45.014;39.006;2022-11-20T10:33:03;17.42;;;7.53;;
61635;SDS011;59438;45.014;39.006;2022-11-20T10:35:38;12.63;;;7.78;;
61635;SDS011;59438;45.014;39.006;2022-11-20T10:38:09;14.10;;;7.18;;
61635;SDS011;59438;45.014;39.006;2022-11-20T10:40:43;16.40;;;7.47;;
61635;SDS011;59438;45.014;39.006;2022-11-20T10:43:12;11.27;;;6.80;;
61635;SDS011;59438;45.014;39.006;2022-11-20T10:48:15;15.70;;;7.47;;
61635;SDS011;59438;45.014;39.006;2022-11-20T10:50:49;15.80;;;6.72;;
61635;SDS011;59438;45.014;39.006;2022-11-20T10:53:28;17.30;;;7.15;;
61635;SDS011;59438;45.014;39.006;2022-11-20T10:56:07;12.65;;;7.55;;
61635;SDS011;59438;45.014;39.006;2022-11-20T10:58:43;13.80;;;7.50;;
61635;SDS011;59438;45.014;39.006;2022-11-20T11:01:16;12.48;;;6.90;;
61635;SDS011;59438;45.014;39.006;2022-11-20T11:03:44;13.60;;;7.15;;
61635;SDS011;59438;45.014;39.006;2022-11-20T11:06:14;12.27;;;6.95;;
61635;SDS011;59438;45.014;39.006;2022-11-20T11:08:47;16.20;;;7.03;;
61635;SDS011;59438;45.014;39.006;2022-11-20T11:11:20;13.40;;;6.97;;
61635;SDS011;59438;45.014;39.006;2022-11-20T11:13:48;10.05;;;6.75;;
61635;SDS011;59438;45.014;39.006;2022-11-20T11:16:21;17.23;;;7.43;;
61635;SDS011;59438;45.014;39.006;2022-11-20T11:18:49;17.38;;;7.30;;
61635;SDS011;59438;45.014;39.006;2022-11-20T11:21:22;19.33;;;8.20;;
61635;SDS011;59438;45.014;39.006;2022-11-20T11:23:58;31.02;;;9.57;;
61635;SDS011;59438;45.014;39.006;2022-11-20T11:26:25;52.08;;;10.73;;
61635;SDS011;59438;45.014;39.006;2022-11-20T11:28:53;22.08;;;8.25;;
61635;SDS011;59438;45.014;39.006;2022-11-20T11:31:24;23.70;;;7.72;;
61635;SDS011;59438;45.014;39.006;2022-11-20T11:33:51;17.27;;;7.85;;
61635;SDS011;59438;45.014;39.006;2022-11-20T11:36:19;18.77;;;7.97;;
61635;SDS011;59438;45.014;39.006;2022-11-20T11:38:50;12.65;;;7.28;;
61635;SDS011;59438;45.014;39.006;2022-11-20T11:41:20;63.90;;;8.45;;
61635;SDS011;59438;45.014;39.006;2022-11-20T11:43:51;28.00;;;8.05;;
61635;SDS011;59438;45.014;39.006;2022-11-20T11:46:27;18.87;;;7.53;;
61635;SDS011;59438;45.014;39.006;2022-11-20T11:48:57;21.08;;;7.78;;
61635;SDS011;59438;45.014;39.006;2022-11-20T11:51:28;14.48;;;7.55;;
61635;SDS011;59438;45.014;39.006;2022-11-20T11:53:59;16.90;;;7.43;;
61635;SDS011;59438;45.014;39.006;2022-11-20T11:56:29;20.00;;;7.95;;
61635;SDS011;59438;45.014;39.006;2022-11-20T11:59:00;17.10;;;8.23;;
61635;SDS011;59438;45.014;39.006;2022-11-20T12:01:32;18.80;;;8.70;;
61635;SDS011;59438;45.014;39.006;2022-11-20T12:04:04;22.00;;;9.15;;
61635;SDS011;59438;45.014;39.006;2022-11-20T12:06:38;21.85;;;8.52;;
61635;SDS011;59438;45.014;39.006;2022-11-20T12:09:08;16.65;;;7.55;;
61635;SDS011;59438;45.014;39.006;2022-11-20T12:11:37;17.45;;;9.02;;
61635;SDS011;59438;45.014;39.006;2022-11-20T12:14:11;16.83;;;8.20;;
61635;SDS011;59438;45.014;39.006;2022-11-20T12:16:41;13.60;;;8.32;;
61635;SDS011;59438;45.014;39.006;2022-11-20T12:19:08;15.35;;;8.05;;
61635;SDS011;59438;45.014;39.006;2022-11-20T12:21:41;13.95;;;8.43;;
61635;SDS011;59438;45.014;39.006;2022-11-20T12:24:32;22.17;;;8.60;;
61635;SDS011;59438;45.014;39.006;2022-11-20T12:30:13;17.10;;;8.20;;
61635;SDS011;59438;45.014;39.006;2022-11-20T12:35:44;13.02;;;7.88;;
61635;SDS011;59438;45.014;39.006;2022-11-20T12:41:25;13.93;;;7.90;;
61635;SDS011;59438;45.014;39.006;2022-11-20T12:44:07;13.25;;;8.38;;
61635;SDS011;59438;45.014;39.006;2022-11-20T12:46:44;14.90;;;8.48;;
61635;SDS011;59438;45.014;39.006;2022-11-20T12:49:20;18.75;;;8.80;;
61635;SDS011;59438;45.014;39.006;2022-11-20T12:51:58;20.67;;;9.05;;
61635;SDS011;59438;45.014;39.006;2022-11-20T12:54:50;14.70;;;8.75;;
61635;SDS011;59438;45.014;39.006;2022-11-20T12:57:32;18.38;;;9.20;;
61635;SDS011;59438;45.014;39.006;2022-11-20T13:00:09;19.77;;;9.50;;
61635;SDS011;59438;45.014;39.006;2022-11-20T13:05:41;22.85;;;10.05;;
61635;SDS011;59438;45.014;39.006;2022-11-20T13:08:18;22.88;;;10.52;;
61635;SDS011;59438;45.014;39.006;2022-11-20T13:10:49;29.35;;;11.00;;
61635;SDS011;59438;45.014;39.006;2022-11-20T13:13:25;22.65;;;10.60;;
61635;SDS011;59438;45.014;39.006;2022-11-20T13:16:02;22.35;;;11.27;;
61635;SDS011;59438;45.014;39.006;2022-11-20T13:18:35;25.83;;;10.88;;
61635;SDS011;59438;45.014;39.006;2022-11-20T13:21:13;25.13;;;11.23;;
61635;SDS011;59438;45.014;39.006;2022-11-20T13:23:43;26.33;;;10.85;;
61635;SDS011;59438;45.014;39.006;2022-11-20T13:26:16;24.90;;;12.00;;
61635;SDS011;59438;45.014;39.006;2022-11-20T13:28:46;29.42;;;11.82;;
61635;SDS011;59438;45.014;39.006;2022-11-20T13:31:27;19.10;;;11.75;;
61635;SDS011;59438;45.014;39.006;2022-11-20T13:33:56;19.13;;;10.43;;
61635;SDS011;59438;45.014;39.006;2022-11-20T13:36:25;27.67;;;10.75;;
61635;SDS011;59438;45.014;39.006;2022-11-20T13:38:54;34.33;;;12.10;;
61635;SDS011;59438;45.014;39.006;2022-11-20T13:41:25;25.23;;;10.75;;
61635;SDS011;59438;45.014;39.006;2022-11-20T13:43:57;16.35;;;10.52;;
61635;SDS011;59438;45.014;39.006;2022-11-20T13:46:34;48.88;;;15.48;;
61635;SDS011;59438;45.014;39.006;2022-11-20T13:49:06;46.47;;;27.33;;
61635;SDS011;59438;45.014;39.006;2022-11-20T13:51:35;53.25;;;25.58;;
61635;SDS011;59438;45.014;39.006;2022-11-20T13:54:17;30.27;;;11.73;;
61635;SDS011;59438;45.014;39.006;2022-11-20T13:56:59;26.85;;;17.15;;
61635;SDS011;59438;45.014;39.006;2022-11-20T13:59:46;29.90;;;13.68;;
61635;SDS011;59438;45.014;39.006;2022-11-20T14:02:22;18.77;;;7.75;;
61635;SDS011;59438;45.014;39.006;2022-11-20T14:04:51;70.95;;;45.28;;
61635;SDS011;59438;45.014;39.006;2022-11-20T14:07:20;95.55;;;64.57;;
61635;SDS011;59438;45.014;39.006;2022-11-20T14:12:17;123.05;;;74.53;;
61635;SDS011;59438;45.014;39.006;2022-11-20T14:14:50;66.65;;;41.75;;
61635;SDS011;59438;45.014;39.006;2022-11-20T14:17:18;44.22;;;30.15;;
61635;SDS011;59438;45.014;39.006;2022-11-20T14:19:46;23.38;;;15.82;;
61635;SDS011;59438;45.014;39.006;2022-11-20T14:22:17;26.67;;;12.50;;
61635;SDS011;59438;45.014;39.006;2022-11-20T14:24:46;19.88;;;11.02;;
61635;SDS011;59438;45.014;39.006;2022-11-20T14:27:14;23.13;;;10.07;;
61635;SDS011;59438;45.014;39.006;2022-11-20T14:29:42;23.75;;;9.45;;
61635;SDS011;59438;45.014;39.006;2022-11-20T14:32:12;21.48;;;10.20;;
61635;SDS011;59438;45.014;39.006;2022-11-20T14:34:41;22.35;;;11.30;;
61635;SDS011;59438;45.014;39.006;2022-11-20T14:37:11;24.75;;;9.52;;
61635;SDS011;59438;45.014;39.006;2022-11-20T14:39:40;27.23;;;8.88;;
61635;SDS011;59438;45.014;39.006;2022-11-20T14:42:14;20.55;;;7.40;;
61635;SDS011;59438;45.014;39.006;2022-11-20T14:44:41;17.00;;;7.03;;